This is the latest recevied weather packets stored in our database for station/object KC8JWT. If no packets are shown the sender has not sent any weather packets the latest 10 day(s).
| Time | Temp. | Humidity | Pressure | Rain* | Wind** | Luminosity | Snow |
|---|---|---|---|---|---|---|---|
| 1777491697 | 18.33° C | 96% | 1007 hPa | 0 mm | - | 185 W/m² | - |
| 1777491395 | 18.33° C | 96% | 1007.1 hPa | 0 mm | - | 173 W/m² | - |
| 1777491092 | 18.33° C | 96% | 1007.1 hPa | 0 mm | - | 173 W/m² | - |
| 1777490787 | 17.78° C | 97% | 1007 hPa | 0 mm | - | 286 W/m² | - |
| 1777490484 | 17.78° C | 96% | 1007.4 hPa | 0 mm | - | 221 W/m² | - |
| 1777490180 | 17.78° C | 97% | 1007.4 hPa | 0 mm | - | 167 W/m² | - |
| 1777489878 | 17.78° C | 97% | 1007.3 hPa | 0 mm | - | 216 W/m² | - |
| 1777489575 | 17.78° C | 98% | 1007.3 hPa | 0 mm | - | 249 W/m² | - |
| 1777489272 | 17.78° C | 98% | 1007 hPa | 0 mm | - | 206 W/m² | - |
| 1777488969 | 17.22° C | 98% | 1007.1 hPa | 0 mm | - | 191 W/m² | - |
| 1777488666 | 17.22° C | 98% | 1006.7 hPa | 0 mm | - | 125 W/m² | - |
| 1777488363 | 17.78° C | 98% | 1006.9 hPa | 0 mm | - | 141 W/m² | - |
| 1777488062 | 17.78° C | 99% | 1007.2 hPa | 0 mm | - | 169 W/m² | - |
| 1777487759 | 17.78° C | 99% | 1007.2 hPa | 0 mm | - | 262 W/m² | - |
| 1777487457 | 17.22° C | 99% | 1007.2 hPa | 0 mm | - | 275 W/m² | - |
| 1777487154 | 17.22° C | 99% | 1007.4 hPa | 0 mm | - | 224 W/m² | - |
| 1777486849 | 17.22° C | 99% | 1007.4 hPa | 1.27 mm | - | 139 W/m² | - |
| 1777486547 | 17.22° C | 99% | 1007.4 hPa | 10.16 mm | - | 242 W/m² | - |
| 1777486244 | 17.22° C | 98% | 1007.5 hPa | 13.72 mm | - | 225 W/m² | - |
| 1777485942 | 17.78° C | 95% | 1007.5 hPa | 7.87 mm | - | 167 W/m² | - |
| 1777485638 | 17.78° C | 92% | 1007.4 hPa | 0 mm | - | 62 W/m² | - |
| 1777485333 | 18.33° C | 90% | 1007.5 hPa | 0 mm | - | 72 W/m² | - |
| 1777485030 | 19.44° C | 88% | 1007.2 hPa | 0 mm | - | 39 W/m² | - |
| 1777484727 | 20° C | 87% | 1007.3 hPa | 0 mm | - | 81 W/m² | - |
| 1777484423 | 20° C | 85% | 1007.1 hPa | 0 mm | - | 79 W/m² | - |
* Rain latest hour (hover to see other rain measurements)
** Current wind speed in m/s (hover to see current wind gust speed)